sensor_id;sensor_type;location;lat;lon;timestamp;P1;durP1;ratioP1;P2;durP2;ratioP2
65463;SDS011;52063;45.110;9.870;2023-09-19T00:00:20;7.32;;;3.20;;
65463;SDS011;52063;45.110;9.870;2023-09-19T00:02:51;12.33;;;3.40;;
65463;SDS011;52063;45.110;9.870;2023-09-19T00:05:25;9.70;;;3.78;;
65463;SDS011;52063;45.110;9.870;2023-09-19T00:07:53;9.02;;;3.55;;
65463;SDS011;52063;45.110;9.870;2023-09-19T00:10:21;7.68;;;3.20;;
65463;SDS011;52063;45.110;9.870;2023-09-19T00:12:50;8.30;;;3.70;;
65463;SDS011;52063;45.110;9.870;2023-09-19T00:15:17;9.43;;;3.30;;
65463;SDS011;52063;45.110;9.870;2023-09-19T00:17:42;8.82;;;3.65;;
65463;SDS011;52063;45.110;9.870;2023-09-19T00:20:08;9.10;;;3.10;;
65463;SDS011;52063;45.110;9.870;2023-09-19T00:22:40;11.32;;;3.70;;
65463;SDS011;52063;45.110;9.870;2023-09-19T00:25:08;6.40;;;2.63;;
65463;SDS011;52063;45.110;9.870;2023-09-19T00:27:35;6.70;;;3.10;;
65463;SDS011;52063;45.110;9.870;2023-09-19T00:30:01;11.65;;;2.90;;
65463;SDS011;52063;45.110;9.870;2023-09-19T00:32:28;9.10;;;2.50;;
65463;SDS011;52063;45.110;9.870;2023-09-19T00:34:57;5.43;;;2.30;;
65463;SDS011;52063;45.110;9.870;2023-09-19T00:37:23;3.97;;;2.10;;
65463;SDS011;52063;45.110;9.870;2023-09-19T00:39:48;5.60;;;2.17;;
65463;SDS011;52063;45.110;9.870;2023-09-19T00:42:20;8.87;;;2.60;;
65463;SDS011;52063;45.110;9.870;2023-09-19T00:44:46;4.93;;;1.90;;
65463;SDS011;52063;45.110;9.870;2023-09-19T00:47:12;6.00;;;2.28;;
65463;SDS011;52063;45.110;9.870;2023-09-19T00:49:44;5.45;;;2.70;;
65463;SDS011;52063;45.110;9.870;2023-09-19T00:52:14;7.25;;;3.22;;
65463;SDS011;52063;45.110;9.870;2023-09-19T00:54:39;11.80;;;3.70;;
65463;SDS011;52063;45.110;9.870;2023-09-19T00:57:05;10.93;;;3.50;;
65463;SDS011;52063;45.110;9.870;2023-09-19T00:59:33;7.93;;;3.60;;
65463;SDS011;52063;45.110;9.870;2023-09-19T01:02:01;12.80;;;3.47;;
65463;SDS011;52063;45.110;9.870;2023-09-19T01:04:31;7.68;;;3.22;;
65463;SDS011;52063;45.110;9.870;2023-09-19T01:06:56;9.55;;;3.85;;
65463;SDS011;52063;45.110;9.870;2023-09-19T01:09:23;8.80;;;3.60;;
65463;SDS011;52063;45.110;9.870;2023-09-19T01:11:49;12.40;;;4.10;;
65463;SDS011;52063;45.110;9.870;2023-09-19T01:31:02;10.43;;;4.87;;
65463;SDS011;52063;45.110;9.870;2023-09-19T01:33:28;16.38;;;5.40;;
65463;SDS011;52063;45.110;9.870;2023-09-19T01:35:59;11.13;;;4.35;;
65463;SDS011;52063;45.110;9.870;2023-09-19T01:38:25;8.75;;;3.78;;
65463;SDS011;52063;45.110;9.870;2023-09-19T01:41:00;9.95;;;4.47;;
65463;SDS011;52063;45.110;9.870;2023-09-19T01:43:34;12.50;;;4.87;;
65463;SDS011;52063;45.110;9.870;2023-09-19T01:46:09;20.48;;;6.30;;
65463;SDS011;52063;45.110;9.870;2023-09-19T01:48:40;11.77;;;6.03;;
65463;SDS011;52063;45.110;9.870;2023-09-19T01:51:13;24.33;;;6.80;;
65463;SDS011;52063;45.110;9.870;2023-09-19T01:56:35;15.83;;;6.47;;
65463;SDS011;52063;45.110;9.870;2023-09-19T01:59:04;12.85;;;6.20;;
65463;SDS011;52063;45.110;9.870;2023-09-19T02:01:32;14.02;;;5.95;;
65463;SDS011;52063;45.110;9.870;2023-09-19T02:03:58;14.68;;;5.82;;
65463;SDS011;52063;45.110;9.870;2023-09-19T02:06:24;9.40;;;4.97;;
65463;SDS011;52063;45.110;9.870;2023-09-19T02:08:52;11.02;;;4.90;;
65463;SDS011;52063;45.110;9.870;2023-09-19T02:11:19;13.75;;;5.25;;
65463;SDS011;52063;45.110;9.870;2023-09-19T02:13:44;11.87;;;5.20;;
65463;SDS011;52063;45.110;9.870;2023-09-19T02:16:10;12.00;;;5.45;;
65463;SDS011;52063;45.110;9.870;2023-09-19T02:18:37;12.13;;;5.50;;
65463;SDS011;52063;45.110;9.870;2023-09-19T02:21:04;17.30;;;5.70;;
65463;SDS011;52063;45.110;9.870;2023-09-19T02:23:31;17.10;;;5.80;;
65463;SDS011;52063;45.110;9.870;2023-09-19T02:25:58;14.40;;;6.28;;
65463;SDS011;52063;45.110;9.870;2023-09-19T02:28:26;10.50;;;5.75;;
65463;SDS011;52063;45.110;9.870;2023-09-19T02:30:55;13.00;;;6.15;;
65463;SDS011;52063;45.110;9.870;2023-09-19T02:33:21;14.13;;;6.73;;
65463;SDS011;52063;45.110;9.870;2023-09-19T02:35:49;10.15;;;6.00;;
65463;SDS011;52063;45.110;9.870;2023-09-19T02:38:15;18.83;;;5.97;;
65463;SDS011;52063;45.110;9.870;2023-09-19T02:40:46;12.00;;;6.50;;
65463;SDS011;52063;45.110;9.870;2023-09-19T02:43:11;13.80;;;5.67;;
65463;SDS011;52063;45.110;9.870;2023-09-19T02:45:37;13.02;;;6.10;;
65463;SDS011;52063;45.110;9.870;2023-09-19T02:48:02;10.73;;;6.40;;
65463;SDS011;52063;45.110;9.870;2023-09-19T02:50:29;10.60;;;6.15;;
65463;SDS011;52063;45.110;9.870;2023-09-19T02:52:54;14.70;;;6.33;;
65463;SDS011;52063;45.110;9.870;2023-09-19T02:55:20;16.80;;;6.50;;
65463;SDS011;52063;45.110;9.870;2023-09-19T02:57:47;15.75;;;6.05;;
65463;SDS011;52063;45.110;9.870;2023-09-19T03:00:13;14.07;;;5.80;;
65463;SDS011;52063;45.110;9.870;2023-09-19T03:02:39;15.80;;;6.30;;
65463;SDS011;52063;45.110;9.870;2023-09-19T03:05:06;13.68;;;7.18;;
65463;SDS011;52063;45.110;9.870;2023-09-19T03:07:33;15.13;;;7.45;;
65463;SDS011;52063;45.110;9.870;2023-09-19T03:09:59;21.20;;;8.25;;
65463;SDS011;52063;45.110;9.870;2023-09-19T03:12:25;13.47;;;7.10;;
65463;SDS011;52063;45.110;9.870;2023-09-19T03:14:51;14.48;;;8.25;;
65463;SDS011;52063;45.110;9.870;2023-09-19T03:17:17;15.77;;;8.25;;
65463;SDS011;52063;45.110;9.870;2023-09-19T03:19:45;16.48;;;9.23;;
65463;SDS011;52063;45.110;9.870;2023-09-19T03:22:12;19.63;;;9.13;;
65463;SDS011;52063;45.110;9.870;2023-09-19T03:24:38;18.05;;;11.18;;
65463;SDS011;52063;45.110;9.870;2023-09-19T03:27:04;17.42;;;10.73;;
65463;SDS011;52063;45.110;9.870;2023-09-19T03:29:30;20.20;;;12.93;;
65463;SDS011;52063;45.110;9.870;2023-09-19T03:31:57;21.40;;;14.70;;
65463;SDS011;52063;45.110;9.870;2023-09-19T03:34:23;26.87;;;16.00;;
65463;SDS011;52063;45.110;9.870;2023-09-19T03:36:48;32.40;;;16.90;;
65463;SDS011;52063;45.110;9.870;2023-09-19T03:39:14;25.73;;;16.70;;
65463;SDS011;52063;45.110;9.870;2023-09-19T03:41:41;28.95;;;17.83;;
65463;SDS011;52063;45.110;9.870;2023-09-19T03:44:07;24.77;;;18.73;;
65463;SDS011;52063;45.110;9.870;2023-09-19T03:46:33;21.23;;;16.80;;
65463;SDS011;52063;45.110;9.870;2023-09-19T03:49:00;22.98;;;18.10;;
65463;SDS011;52063;45.110;9.870;2023-09-19T03:51:26;23.83;;;18.03;;
65463;SDS011;52063;45.110;9.870;2023-09-19T03:53:52;23.75;;;18.10;;
65463;SDS011;52063;45.110;9.870;2023-09-19T03:56:17;31.80;;;20.13;;
65463;SDS011;52063;45.110;9.870;2023-09-19T03:58:43;23.58;;;18.35;;
65463;SDS011;52063;45.110;9.870;2023-09-19T04:01:08;23.67;;;18.97;;
65463;SDS011;52063;45.110;9.870;2023-09-19T04:03:34;23.52;;;18.05;;
65463;SDS011;52063;45.110;9.870;2023-09-19T04:06:11;24.93;;;19.40;;
65463;SDS011;52063;45.110;9.870;2023-09-19T04:08:39;24.25;;;19.77;;
65463;SDS011;52063;45.110;9.870;2023-09-19T04:11:05;26.40;;;20.45;;
65463;SDS011;52063;45.110;9.870;2023-09-19T04:13:31;27.13;;;19.77;;
65463;SDS011;52063;45.110;9.870;2023-09-19T04:15:56;29.27;;;22.00;;
65463;SDS011;52063;45.110;9.870;2023-09-19T04:18:22;31.02;;;22.95;;
65463;SDS011;52063;45.110;9.870;2023-09-19T04:20:52;34.40;;;23.07;;
65463;SDS011;52063;45.110;9.870;2023-09-19T04:23:18;21.02;;;16.13;;
65463;SDS011;52063;45.110;9.870;2023-09-19T04:25:47;18.65;;;14.38;;
65463;SDS011;52063;45.110;9.870;2023-09-19T04:28:13;20.88;;;12.82;;
65463;SDS011;52063;45.110;9.870;2023-09-19T04:30:39;17.30;;;12.93;;
65463;SDS011;52063;45.110;9.870;2023-09-19T04:33:07;18.05;;;12.77;;
65463;SDS011;52063;45.110;9.870;2023-09-19T04:35:33;18.10;;;12.18;;
65463;SDS011;52063;45.110;9.870;2023-09-19T04:37:59;15.00;;;11.80;;
65463;SDS011;52063;45.110;9.870;2023-09-19T04:40:25;15.67;;;10.53;;
65463;SDS011;52063;45.110;9.870;2023-09-19T04:42:57;15.45;;;10.90;;
65463;SDS011;52063;45.110;9.870;2023-09-19T04:45:23;14.52;;;10.27;;
65463;SDS011;52063;45.110;9.870;2023-09-19T04:47:49;13.90;;;9.18;;
65463;SDS011;52063;45.110;9.870;2023-09-19T04:50:15;13.47;;;9.77;;
65463;SDS011;52063;45.110;9.870;2023-09-19T04:52:43;10.73;;;8.75;;
65463;SDS011;52063;45.110;9.870;2023-09-19T04:55:12;10.38;;;8.25;;
65463;SDS011;52063;45.110;9.870;2023-09-19T04:57:48;15.37;;;9.53;;
65463;SDS011;52063;45.110;9.870;2023-09-19T05:00:15;11.88;;;7.93;;
65463;SDS011;52063;45.110;9.870;2023-09-19T05:02:42;12.23;;;8.98;;
65463;SDS011;52063;45.110;9.870;2023-09-19T05:05:08;10.55;;;8.32;;
65463;SDS011;52063;45.110;9.870;2023-09-19T05:07:42;13.10;;;9.20;;
65463;SDS011;52063;45.110;9.870;2023-09-19T05:10:08;11.70;;;8.03;;
65463;SDS011;52063;45.110;9.870;2023-09-19T05:12:34;14.55;;;8.43;;
65463;SDS011;52063;45.110;9.870;2023-09-19T05:15:01;13.93;;;9.35;;
65463;SDS011;52063;45.110;9.870;2023-09-19T05:17:31;17.17;;;10.27;;
65463;SDS011;52063;45.110;9.870;2023-09-19T05:19:57;16.90;;;11.27;;
65463;SDS011;52063;45.110;9.870;2023-09-19T05:22:23;20.57;;;13.80;;
65463;SDS011;52063;45.110;9.870;2023-09-19T05:24:50;25.70;;;14.60;;
65463;SDS011;52063;45.110;9.870;2023-09-19T05:27:16;23.33;;;14.82;;
65463;SDS011;52063;45.110;9.870;2023-09-19T05:29:44;23.30;;;14.60;;
65463;SDS011;52063;45.110;9.870;2023-09-19T05:32:10;22.73;;;13.57;;
65463;SDS011;52063;45.110;9.870;2023-09-19T05:34:36;18.10;;;11.68;;
65463;SDS011;52063;45.110;9.870;2023-09-19T05:37:02;17.03;;;11.07;;
65463;SDS011;52063;45.110;9.870;2023-09-19T05:39:28;19.83;;;12.38;;
65463;SDS011;52063;45.110;9.870;2023-09-19T05:41:53;23.17;;;13.60;;
65463;SDS011;52063;45.110;9.870;2023-09-19T05:44:19;17.77;;;11.73;;
65463;SDS011;52063;45.110;9.870;2023-09-19T05:46:44;23.20;;;14.40;;
65463;SDS011;52063;45.110;9.870;2023-09-19T05:49:13;22.23;;;14.13;;
65463;SDS011;52063;45.110;9.870;2023-09-19T05:51:39;22.73;;;13.03;;
65463;SDS011;52063;45.110;9.870;2023-09-19T05:54:04;22.98;;;12.88;;
65463;SDS011;52063;45.110;9.870;2023-09-19T05:56:30;25.10;;;15.43;;
65463;SDS011;52063;45.110;9.870;2023-09-19T05:58:56;28.45;;;17.00;;
65463;SDS011;52063;45.110;9.870;2023-09-19T06:01:21;33.63;;;18.30;;
65463;SDS011;52063;45.110;9.870;2023-09-19T06:03:47;29.30;;;18.35;;
65463;SDS011;52063;45.110;9.870;2023-09-19T06:06:13;33.37;;;18.53;;
65463;SDS011;52063;45.110;9.870;2023-09-19T06:08:39;27.67;;;18.23;;
65463;SDS011;52063;45.110;9.870;2023-09-19T06:11:04;32.40;;;18.73;;
65463;SDS011;52063;45.110;9.870;2023-09-19T06:13:32;31.93;;;20.13;;
65463;SDS011;52063;45.110;9.870;2023-09-19T06:15:58;38.00;;;21.40;;
65463;SDS011;52063;45.110;9.870;2023-09-19T06:18:25;40.08;;;23.08;;
65463;SDS011;52063;45.110;9.870;2023-09-19T06:20:51;39.72;;;21.90;;
65463;SDS011;52063;45.110;9.870;2023-09-19T06:23:17;38.83;;;23.23;;
65463;SDS011;52063;45.110;9.870;2023-09-19T06:25:43;37.47;;;22.20;;
65463;SDS011;52063;45.110;9.870;2023-09-19T06:28:09;39.67;;;22.13;;
65463;SDS011;52063;45.110;9.870;2023-09-19T06:30:37;36.92;;;22.10;;
65463;SDS011;52063;45.110;9.870;2023-09-19T06:33:05;36.87;;;22.00;;
65463;SDS011;52063;45.110;9.870;2023-09-19T06:35:31;35.22;;;21.00;;
65463;SDS011;52063;45.110;9.870;2023-09-19T06:37:58;35.13;;;21.35;;
65463;SDS011;52063;45.110;9.870;2023-09-19T06:40:23;34.93;;;21.17;;
65463;SDS011;52063;45.110;9.870;2023-09-19T06:42:52;32.95;;;20.38;;
65463;SDS011;52063;45.110;9.870;2023-09-19T06:45:19;30.45;;;19.65;;
65463;SDS011;52063;45.110;9.870;2023-09-19T06:47:45;32.63;;;19.97;;
65463;SDS011;52063;45.110;9.870;2023-09-19T06:50:14;31.02;;;19.10;;
65463;SDS011;52063;45.110;9.870;2023-09-19T06:52:40;27.88;;;18.48;;
65463;SDS011;52063;45.110;9.870;2023-09-19T06:55:06;39.30;;;25.20;;
65463;SDS011;52063;45.110;9.870;2023-09-19T06:57:32;41.50;;;25.80;;
65463;SDS011;52063;45.110;9.870;2023-09-19T06:59:58;47.22;;;26.25;;
65463;SDS011;52063;45.110;9.870;2023-09-19T07:02:23;43.50;;;27.00;;
65463;SDS011;52063;45.110;9.870;2023-09-19T07:04:48;46.87;;;27.13;;
65463;SDS011;52063;45.110;9.870;2023-09-19T07:07:15;46.42;;;26.80;;
65463;SDS011;52063;45.110;9.870;2023-09-19T07:09:41;54.67;;;28.67;;
65463;SDS011;52063;45.110;9.870;2023-09-19T07:12:07;47.67;;;26.50;;
65463;SDS011;52063;45.110;9.870;2023-09-19T07:14:33;47.70;;;27.33;;
65463;SDS011;52063;45.110;9.870;2023-09-19T07:16:58;46.40;;;27.43;;
65463;SDS011;52063;45.110;9.870;2023-09-19T07:19:26;52.35;;;28.92;;
65463;SDS011;52063;45.110;9.870;2023-09-19T07:21:53;45.50;;;27.05;;
65463;SDS011;52063;45.110;9.870;2023-09-19T07:24:19;45.92;;;27.23;;
65463;SDS011;52063;45.110;9.870;2023-09-19T07:26:47;50.53;;;29.07;;
65463;SDS011;52063;45.110;9.870;2023-09-19T07:29:13;51.65;;;26.77;;
65463;SDS011;52063;45.110;9.870;2023-09-19T07:31:38;48.37;;;26.30;;
65463;SDS011;52063;45.110;9.870;2023-09-19T07:34:04;49.27;;;26.50;;
65463;SDS011;52063;45.110;9.870;2023-09-19T07:36:30;53.13;;;28.67;;
65463;SDS011;52063;45.110;9.870;2023-09-19T07:38:57;47.75;;;25.83;;
65463;SDS011;52063;45.110;9.870;2023-09-19T07:41:23;55.78;;;26.67;;
65463;SDS011;52063;45.110;9.870;2023-09-19T07:43:49;52.37;;;27.90;;
65463;SDS011;52063;45.110;9.870;2023-09-19T07:46:14;48.08;;;26.23;;
65463;SDS011;52063;45.110;9.870;2023-09-19T07:48:40;42.07;;;23.63;;
65463;SDS011;52063;45.110;9.870;2023-09-19T07:51:06;44.73;;;23.17;;
65463;SDS011;52063;45.110;9.870;2023-09-19T07:53:33;46.13;;;23.73;;
65463;SDS011;52063;45.110;9.870;2023-09-19T07:56:06;46.10;;;24.52;;
65463;SDS011;52063;45.110;9.870;2023-09-19T07:58:32;43.13;;;23.15;;
65463;SDS011;52063;45.110;9.870;2023-09-19T08:01:03;41.35;;;22.52;;
65463;SDS011;52063;45.110;9.870;2023-09-19T08:03:29;40.08;;;22.42;;
65463;SDS011;52063;45.110;9.870;2023-09-19T08:05:56;35.93;;;21.50;;
65463;SDS011;52063;45.110;9.870;2023-09-19T08:08:23;41.88;;;22.48;;
65463;SDS011;52063;45.110;9.870;2023-09-19T08:10:52;37.43;;;22.07;;
65463;SDS011;52063;45.110;9.870;2023-09-19T08:13:23;37.95;;;20.60;;
65463;SDS011;52063;45.110;9.870;2023-09-19T08:15:49;35.75;;;18.67;;
65463;SDS011;52063;45.110;9.870;2023-09-19T08:18:16;42.70;;;20.27;;
65463;SDS011;52063;45.110;9.870;2023-09-19T08:20:42;36.35;;;19.98;;
65463;SDS011;52063;45.110;9.870;2023-09-19T08:23:08;31.50;;;18.95;;
65463;SDS011;52063;45.110;9.870;2023-09-19T08:25:33;34.90;;;18.80;;
65463;SDS011;52063;45.110;9.870;2023-09-19T08:27:59;38.33;;;19.05;;
65463;SDS011;52063;45.110;9.870;2023-09-19T08:30:28;32.72;;;17.65;;
65463;SDS011;52063;45.110;9.870;2023-09-19T08:33:01;31.55;;;18.52;;
65463;SDS011;52063;45.110;9.870;2023-09-19T08:35:29;30.57;;;16.53;;
65463;SDS011;52063;45.110;9.870;2023-09-19T08:37:55;32.17;;;15.43;;
65463;SDS011;52063;45.110;9.870;2023-09-19T08:40:20;23.00;;;13.60;;
65463;SDS011;52063;45.110;9.870;2023-09-19T08:42:50;29.17;;;13.65;;
65463;SDS011;52063;45.110;9.870;2023-09-19T08:45:16;23.60;;;12.82;;
65463;SDS011;52063;45.110;9.870;2023-09-19T08:47:45;24.52;;;12.55;;
65463;SDS011;52063;45.110;9.870;2023-09-19T08:52:48;24.55;;;11.82;;
65463;SDS011;52063;45.110;9.870;2023-09-19T08:55:18;26.30;;;11.38;;
65463;SDS011;52063;45.110;9.870;2023-09-19T08:57:49;23.27;;;10.75;;
65463;SDS011;52063;45.110;9.870;2023-09-19T09:00:15;18.48;;;10.70;;
65463;SDS011;52063;45.110;9.870;2023-09-19T09:02:45;19.30;;;9.60;;
65463;SDS011;52063;45.110;9.870;2023-09-19T09:05:12;19.67;;;9.57;;
65463;SDS011;52063;45.110;9.870;2023-09-19T09:07:38;17.90;;;9.52;;
65463;SDS011;52063;45.110;9.870;2023-09-19T09:10:03;18.83;;;9.63;;
65463;SDS011;52063;45.110;9.870;2023-09-19T09:12:29;18.33;;;9.50;;
65463;SDS011;52063;45.110;9.870;2023-09-19T09:14:55;20.08;;;8.57;;
65463;SDS011;52063;45.110;9.870;2023-09-19T09:17:25;15.93;;;8.07;;
65463;SDS011;52063;45.110;9.870;2023-09-19T09:19:53;15.43;;;8.20;;
65463;SDS011;52063;45.110;9.870;2023-09-19T09:22:19;15.75;;;7.47;;
65463;SDS011;52063;45.110;9.870;2023-09-19T09:24:52;15.07;;;7.43;;
65463;SDS011;52063;45.110;9.870;2023-09-19T09:27:26;14.63;;;7.78;;
65463;SDS011;52063;45.110;9.870;2023-09-19T09:29:52;20.60;;;8.57;;
65463;SDS011;52063;45.110;9.870;2023-09-19T09:32:21;12.55;;;7.60;;
65463;SDS011;52063;45.110;9.870;2023-09-19T09:34:57;17.00;;;7.65;;
65463;SDS011;52063;45.110;9.870;2023-09-19T09:37:24;10.15;;;6.97;;
65463;SDS011;52063;45.110;9.870;2023-09-19T09:39:55;14.98;;;7.25;;
65463;SDS011;52063;45.110;9.870;2023-09-19T09:42:32;16.03;;;8.20;;
65463;SDS011;52063;45.110;9.870;2023-09-19T09:47:45;16.92;;;7.50;;
65463;SDS011;52063;45.110;9.870;2023-09-19T09:50:26;14.10;;;7.43;;
65463;SDS011;52063;45.110;9.870;2023-09-19T09:53:21;17.17;;;8.40;;
65463;SDS011;52063;45.110;9.870;2023-09-19T09:55:57;13.97;;;8.43;;
65463;SDS011;52063;45.110;9.870;2023-09-19T09:58:37;11.70;;;7.40;;
65463;SDS011;52063;45.110;9.870;2023-09-19T10:01:20;15.32;;;7.68;;
65463;SDS011;52063;45.110;9.870;2023-09-19T10:03:52;13.68;;;7.15;;
65463;SDS011;52063;45.110;9.870;2023-09-19T10:06:22;11.82;;;6.30;;
65463;SDS011;52063;45.110;9.870;2023-09-19T10:09:06;10.27;;;6.07;;
65463;SDS011;52063;45.110;9.870;2023-09-19T10:11:40;14.48;;;7.18;;
65463;SDS011;52063;45.110;9.870;2023-09-19T10:14:08;12.57;;;6.78;;
65463;SDS011;52063;45.110;9.870;2023-09-19T10:16:35;11.18;;;6.85;;
65463;SDS011;52063;45.110;9.870;2023-09-19T10:19:10;10.35;;;6.35;;
65463;SDS011;52063;45.110;9.870;2023-09-19T10:21:55;14.43;;;6.93;;
65463;SDS011;52063;45.110;9.870;2023-09-19T10:24:21;12.73;;;7.28;;
65463;SDS011;52063;45.110;9.870;2023-09-19T10:26:48;12.40;;;6.22;;
65463;SDS011;52063;45.110;9.870;2023-09-19T10:29:15;13.15;;;6.82;;
65463;SDS011;52063;45.110;9.870;2023-09-19T10:31:43;9.73;;;6.25;;
65463;SDS011;52063;45.110;9.870;2023-09-19T10:34:12;12.57;;;6.40;;
65463;SDS011;52063;45.110;9.870;2023-09-19T10:36:39;11.55;;;6.82;;
65463;SDS011;52063;45.110;9.870;2023-09-19T10:39:10;9.32;;;6.30;;
65463;SDS011;52063;45.110;9.870;2023-09-19T10:41:37;12.98;;;6.40;;
65463;SDS011;52063;45.110;9.870;2023-09-19T10:44:03;12.67;;;6.73;;
65463;SDS011;52063;45.110;9.870;2023-09-19T10:46:33;13.02;;;5.93;;
65463;SDS011;52063;45.110;9.870;2023-09-19T10:49:02;10.33;;;6.07;;
65463;SDS011;52063;45.110;9.870;2023-09-19T10:51:38;12.73;;;6.03;;
65463;SDS011;52063;45.110;9.870;2023-09-19T10:54:06;12.68;;;5.72;;
65463;SDS011;52063;45.110;9.870;2023-09-19T10:56:38;10.60;;;5.60;;
65463;SDS011;52063;45.110;9.870;2023-09-19T10:59:14;9.90;;;5.40;;
65463;SDS011;52063;45.110;9.870;2023-09-19T11:01:48;10.13;;;5.13;;
65463;SDS011;52063;45.110;9.870;2023-09-19T11:04:28;9.02;;;5.32;;
65463;SDS011;52063;45.110;9.870;2023-09-19T11:09:45;7.57;;;5.00;;
65463;SDS011;52063;45.110;9.870;2023-09-19T11:15:01;8.93;;;5.07;;
65463;SDS011;52063;45.110;9.870;2023-09-19T11:30:52;8.98;;;4.78;;
65463;SDS011;52063;45.110;9.870;2023-09-19T11:33:23;9.50;;;4.97;;
65463;SDS011;52063;45.110;9.870;2023-09-19T11:41:39;9.80;;;4.30;;
65463;SDS011;52063;45.110;9.870;2023-09-19T11:46:34;10.68;;;4.38;;
65463;SDS011;52063;45.110;9.870;2023-09-19T11:49:16;11.48;;;4.15;;
65463;SDS011;52063;45.110;9.870;2023-09-19T11:51:46;11.18;;;4.30;;
65463;SDS011;52063;45.110;9.870;2023-09-19T11:54:15;6.63;;;3.90;;
65463;SDS011;52063;45.110;9.870;2023-09-19T11:56:43;8.05;;;3.67;;
65463;SDS011;52063;45.110;9.870;2023-09-19T11:59:10;7.90;;;3.90;;
65463;SDS011;52063;45.110;9.870;2023-09-19T12:01:35;5.80;;;3.53;;
65463;SDS011;52063;45.110;9.870;2023-09-19T12:04:05;9.05;;;3.75;;
65463;SDS011;52063;45.110;9.870;2023-09-19T12:06:33;11.07;;;3.58;;
65463;SDS011;52063;45.110;9.870;2023-09-19T12:08:58;8.83;;;3.10;;
65463;SDS011;52063;45.110;9.870;2023-09-19T12:11:27;5.93;;;3.25;;
65463;SDS011;52063;45.110;9.870;2023-09-19T12:13:53;7.90;;;3.70;;
65463;SDS011;52063;45.110;9.870;2023-09-19T12:16:23;10.07;;;3.83;;
65463;SDS011;52063;45.110;9.870;2023-09-19T12:18:50;6.30;;;3.33;;
65463;SDS011;52063;45.110;9.870;2023-09-19T12:21:28;7.00;;;3.40;;
65463;SDS011;52063;45.110;9.870;2023-09-19T12:24:00;6.60;;;3.33;;
65463;SDS011;52063;45.110;9.870;2023-09-19T12:26:40;8.48;;;3.30;;
65463;SDS011;52063;45.110;9.870;2023-09-19T12:29:16;5.80;;;3.30;;
65463;SDS011;52063;45.110;9.870;2023-09-19T12:31:51;10.47;;;3.70;;
65463;SDS011;52063;45.110;9.870;2023-09-19T12:34:28;12.13;;;3.38;;
65463;SDS011;52063;45.110;9.870;2023-09-19T12:40:06;7.05;;;3.15;;
65463;SDS011;52063;45.110;9.870;2023-09-19T12:42:45;8.10;;;3.20;;
65463;SDS011;52063;45.110;9.870;2023-09-19T12:45:11;12.93;;;3.40;;
65463;SDS011;52063;45.110;9.870;2023-09-19T12:47:39;7.57;;;3.22;;
65463;SDS011;52063;45.110;9.870;2023-09-19T12:50:06;8.18;;;3.17;;
65463;SDS011;52063;45.110;9.870;2023-09-19T12:52:36;10.18;;;3.30;;
65463;SDS011;52063;45.110;9.870;2023-09-19T12:55:02;10.35;;;2.97;;
65463;SDS011;52063;45.110;9.870;2023-09-19T12:57:28;7.47;;;3.10;;
65463;SDS011;52063;45.110;9.870;2023-09-19T12:59:53;9.00;;;2.87;;
65463;SDS011;52063;45.110;9.870;2023-09-19T13:02:20;8.63;;;2.70;;
65463;SDS011;52063;45.110;9.870;2023-09-19T13:04:52;6.43;;;3.05;;
65463;SDS011;52063;45.110;9.870;2023-09-19T13:10:10;5.75;;;2.70;;
65463;SDS011;52063;45.110;9.870;2023-09-19T13:12:39;7.27;;;2.80;;
65463;SDS011;52063;45.110;9.870;2023-09-19T13:15:10;7.47;;;2.63;;
65463;SDS011;52063;45.110;9.870;2023-09-19T13:17:48;8.18;;;3.15;;
65463;SDS011;52063;45.110;9.870;2023-09-19T13:22:57;8.32;;;3.00;;
65463;SDS011;52063;45.110;9.870;2023-09-19T13:25:33;10.90;;;2.70;;
65463;SDS011;52063;45.110;9.870;2023-09-19T13:28:00;7.57;;;2.97;;
65463;SDS011;52063;45.110;9.870;2023-09-19T13:30:29;4.50;;;2.22;;
65463;SDS011;52063;45.110;9.870;2023-09-19T13:33:09;7.60;;;2.92;;
65463;SDS011;52063;45.110;9.870;2023-09-19T13:35:35;5.65;;;2.83;;
65463;SDS011;52063;45.110;9.870;2023-09-19T13:38:07;6.97;;;3.00;;
65463;SDS011;52063;45.110;9.870;2023-09-19T13:40:36;6.32;;;2.88;;
65463;SDS011;52063;45.110;9.870;2023-09-19T13:43:06;5.78;;;3.00;;
65463;SDS011;52063;45.110;9.870;2023-09-19T13:45:32;6.30;;;2.75;;
65463;SDS011;52063;45.110;9.870;2023-09-19T13:47:58;6.97;;;3.37;;
65463;SDS011;52063;45.110;9.870;2023-09-19T13:50:26;7.72;;;2.67;;
65463;SDS011;52063;45.110;9.870;2023-09-19T13:52:54;5.88;;;2.65;;
65463;SDS011;52063;45.110;9.870;2023-09-19T13:55:19;5.63;;;2.83;;
65463;SDS011;52063;45.110;9.870;2023-09-19T13:57:46;4.82;;;2.72;;
65463;SDS011;52063;45.110;9.870;2023-09-19T14:00:15;7.45;;;3.00;;
65463;SDS011;52063;45.110;9.870;2023-09-19T14:02:41;6.90;;;3.20;;
65463;SDS011;52063;45.110;9.870;2023-09-19T14:05:11;7.43;;;3.27;;
65463;SDS011;52063;45.110;9.870;2023-09-19T14:07:40;6.15;;;3.25;;
65463;SDS011;52063;45.110;9.870;2023-09-19T14:10:07;7.60;;;2.67;;
65463;SDS011;52063;45.110;9.870;2023-09-19T14:12:33;5.68;;;2.63;;
65463;SDS011;52063;45.110;9.870;2023-09-19T14:14:59;5.93;;;3.03;;
65463;SDS011;52063;45.110;9.870;2023-09-19T14:17:25;7.77;;;2.83;;
65463;SDS011;52063;45.110;9.870;2023-09-19T14:19:52;6.80;;;3.28;;
65463;SDS011;52063;45.110;9.870;2023-09-19T14:22:17;7.73;;;3.10;;
65463;SDS011;52063;45.110;9.870;2023-09-19T14:24:42;7.90;;;2.50;;
65463;SDS011;52063;45.110;9.870;2023-09-19T14:27:09;4.70;;;2.60;;
65463;SDS011;52063;45.110;9.870;2023-09-19T14:29:34;6.50;;;2.50;;
65463;SDS011;52063;45.110;9.870;2023-09-19T14:32:01;6.73;;;2.40;;
65463;SDS011;52063;45.110;9.870;2023-09-19T14:34:27;4.78;;;2.70;;
65463;SDS011;52063;45.110;9.870;2023-09-19T14:36:52;4.77;;;2.40;;
65463;SDS011;52063;45.110;9.870;2023-09-19T14:39:19;5.37;;;2.67;;
65463;SDS011;52063;45.110;9.870;2023-09-19T14:41:45;6.63;;;2.72;;
65463;SDS011;52063;45.110;9.870;2023-09-19T14:44:10;4.50;;;1.93;;
65463;SDS011;52063;45.110;9.870;2023-09-19T14:46:36;5.45;;;2.22;;
65463;SDS011;52063;45.110;9.870;2023-09-19T14:49:01;4.63;;;2.10;;
65463;SDS011;52063;45.110;9.870;2023-09-19T14:51:29;4.63;;;2.47;;
65463;SDS011;52063;45.110;9.870;2023-09-19T14:53:55;6.30;;;2.73;;
65463;SDS011;52063;45.110;9.870;2023-09-19T14:56:21;5.40;;;2.33;;
65463;SDS011;52063;45.110;9.870;2023-09-19T14:58:49;8.05;;;2.47;;
65463;SDS011;52063;45.110;9.870;2023-09-19T15:01:14;3.93;;;2.07;;
65463;SDS011;52063;45.110;9.870;2023-09-19T15:03:41;4.90;;;2.30;;
65463;SDS011;52063;45.110;9.870;2023-09-19T15:06:08;5.28;;;2.17;;
65463;SDS011;52063;45.110;9.870;2023-09-19T15:08:37;4.78;;;2.85;;
65463;SDS011;52063;45.110;9.870;2023-09-19T15:11:08;5.72;;;2.50;;
65463;SDS011;52063;45.110;9.870;2023-09-19T15:13:34;3.63;;;2.43;;
65463;SDS011;52063;45.110;9.870;2023-09-19T15:16:00;4.60;;;2.42;;
65463;SDS011;52063;45.110;9.870;2023-09-19T15:18:27;4.23;;;2.40;;
65463;SDS011;52063;45.110;9.870;2023-09-19T15:20:53;4.25;;;2.72;;
65463;SDS011;52063;45.110;9.870;2023-09-19T15:23:19;6.40;;;2.38;;
65463;SDS011;52063;45.110;9.870;2023-09-19T15:25:48;5.47;;;2.35;;
65463;SDS011;52063;45.110;9.870;2023-09-19T15:28:14;6.83;;;2.30;;
65463;SDS011;52063;45.110;9.870;2023-09-19T15:30:40;5.30;;;2.33;;
65463;SDS011;52063;45.110;9.870;2023-09-19T15:33:05;5.83;;;2.53;;
65463;SDS011;52063;45.110;9.870;2023-09-19T15:35:31;7.38;;;2.63;;
65463;SDS011;52063;45.110;9.870;2023-09-19T15:37:56;6.00;;;2.90;;